createdAt,value
2018-05-29T00:02:26.898Z,3.80
2018-05-29T00:04:54.091Z,3.57
2018-05-29T00:07:21.283Z,3.50
2018-05-29T00:09:48.568Z,3.00
2018-05-29T00:12:15.769Z,3.00
2018-05-29T00:14:42.974Z,3.00
2018-05-29T00:17:10.154Z,3.40
2018-05-29T00:19:37.359Z,3.57
2018-05-29T00:22:04.548Z,3.30
2018-05-29T00:24:31.800Z,3.50
2018-05-29T00:26:58.994Z,3.20
2018-05-29T00:29:26.183Z,2.80
2018-05-29T00:31:53.376Z,2.67
2018-05-29T00:34:20.560Z,2.80
2018-05-29T00:36:47.758Z,2.87
2018-05-29T00:39:14.950Z,3.23
2018-05-29T00:41:42.150Z,3.63
2018-05-29T00:44:09.337Z,2.70
2018-05-29T00:46:36.554Z,2.70
2018-05-29T00:49:03.747Z,2.60
2018-05-29T00:51:30.957Z,2.83
2018-05-29T00:53:58.170Z,3.03
2018-05-29T00:56:25.401Z,3.07
2018-05-29T00:58:52.627Z,2.77
2018-05-29T01:01:19.810Z,3.20
2018-05-29T01:03:47.004Z,2.87
2018-05-29T01:06:14.414Z,2.73
2018-05-29T01:08:41.670Z,3.17
2018-05-29T01:11:08.863Z,2.93
2018-05-29T01:13:36.250Z,3.00
2018-05-29T01:16:03.440Z,3.07
2018-05-29T01:18:30.646Z,3.07
2018-05-29T01:20:57.866Z,3.20
2018-05-29T01:23:25.098Z,2.53
2018-05-29T01:25:52.290Z,3.00
2018-05-29T01:28:19.478Z,3.50
2018-05-29T01:30:46.674Z,3.37
2018-05-29T01:33:13.874Z,3.10
2018-05-29T01:35:41.075Z,3.30
2018-05-29T01:38:08.267Z,3.13
2018-05-29T01:40:35.449Z,3.00
2018-05-29T01:43:02.647Z,3.47
2018-05-29T01:45:29.850Z,3.57
2018-05-29T01:47:57.027Z,3.60
2018-05-29T01:50:24.239Z,3.77
2018-05-29T01:52:51.440Z,5.03
2018-05-29T01:55:18.617Z,4.73
2018-05-29T01:57:45.814Z,3.57
2018-05-29T02:00:13.009Z,4.33
2018-05-29T02:02:40.230Z,3.83
2018-05-29T02:05:07.421Z,4.10
2018-05-29T02:07:34.621Z,4.20
2018-05-29T02:10:01.800Z,4.70
2018-05-29T02:12:28.985Z,3.40
2018-05-29T02:14:56.185Z,3.10
2018-05-29T02:17:23.390Z,3.00
2018-05-29T02:19:50.581Z,2.77
2018-05-29T02:22:17.844Z,2.90
2018-05-29T02:24:45.041Z,3.07
2018-05-29T02:27:12.231Z,2.80
2018-05-29T02:29:39.461Z,3.13
2018-05-29T02:32:06.646Z,3.00
2018-05-29T02:34:33.865Z,3.20
2018-05-29T02:37:01.050Z,3.07
2018-05-29T02:39:28.238Z,3.00
2018-05-29T02:41:55.430Z,2.70
2018-05-29T02:44:22.630Z,2.63
2018-05-29T02:46:49.870Z,2.60
2018-05-29T02:49:17.053Z,2.90
2018-05-29T02:51:44.258Z,3.77
2018-05-29T02:54:11.464Z,3.07
2018-05-29T02:56:38.662Z,3.10
2018-05-29T02:59:05.894Z,3.47
2018-05-29T03:01:33.079Z,3.47
2018-05-29T03:04:00.288Z,3.00
2018-05-29T03:06:27.485Z,4.13
2018-05-29T03:08:54.721Z,2.77
2018-05-29T03:11:21.895Z,2.80
2018-05-29T03:13:49.122Z,3.70
2018-05-29T03:16:16.302Z,3.07
2018-05-29T03:18:43.485Z,2.70
2018-05-29T03:21:10.701Z,2.97
2018-05-29T03:23:37.890Z,3.03
2018-05-29T03:26:05.103Z,3.37
2018-05-29T03:28:32.275Z,4.07
2018-05-29T03:30:59.496Z,3.60
2018-05-29T03:33:26.685Z,3.00
2018-05-29T03:35:53.873Z,3.10
2018-05-29T03:38:21.058Z,2.97
2018-05-29T03:40:48.266Z,2.77
2018-05-29T03:43:15.465Z,3.40
2018-05-29T03:45:42.654Z,3.00
2018-05-29T03:48:09.841Z,3.00
2018-05-29T03:50:37.033Z,2.70
2018-05-29T03:53:03.998Z,3.30
2018-05-29T03:55:31.194Z,2.80
2018-05-29T03:57:58.394Z,2.87
2018-05-29T04:00:25.577Z,2.60
2018-05-29T04:02:52.776Z,3.30
2018-05-29T04:05:19.960Z,2.93
2018-05-29T04:07:47.154Z,3.00
2018-05-29T04:10:14.118Z,3.07
2018-05-29T04:12:41.301Z,2.70
2018-05-29T04:15:08.528Z,3.00
2018-05-29T04:17:35.721Z,2.80
2018-05-29T04:20:02.941Z,2.60
2018-05-29T04:22:29.906Z,3.13
2018-05-29T04:24:57.109Z,2.40
2018-05-29T04:27:24.308Z,2.50
2018-05-29T04:29:51.504Z,2.83
2018-05-29T04:32:18.710Z,2.40
2018-05-29T04:34:45.905Z,3.63
2018-05-29T04:37:13.102Z,2.90
2018-05-29T04:39:40.316Z,3.17
2018-05-29T04:42:07.515Z,2.53
2018-05-29T04:44:34.689Z,2.80
2018-05-29T04:47:01.943Z,2.33
2018-05-29T04:49:29.310Z,2.63
2018-05-29T04:51:56.521Z,4.00
2018-05-29T04:54:23.715Z,3.33
2018-05-29T04:56:50.901Z,3.77
2018-05-29T04:59:18.097Z,3.53
2018-05-29T05:01:45.310Z,2.80
2018-05-29T05:04:12.510Z,2.70
2018-05-29T05:06:39.697Z,2.77
2018-05-29T05:09:06.914Z,3.17
2018-05-29T05:11:34.115Z,4.37
2018-05-29T05:14:01.298Z,4.30
2018-05-29T05:16:28.503Z,3.30
2018-05-29T05:18:56.535Z,3.80
2018-05-29T05:21:23.737Z,3.73
2018-05-29T05:23:51.783Z,3.50
2018-05-29T05:26:19.006Z,3.80
2018-05-29T05:28:48.315Z,3.50
2018-05-29T05:31:15.518Z,3.20
2018-05-29T05:33:42.705Z,3.47
2018-05-29T05:36:09.928Z,3.10
2018-05-29T05:38:39.722Z,6.10
2018-05-29T05:41:06.933Z,3.90
2018-05-29T05:43:34.132Z,3.50
2018-05-29T05:46:01.387Z,3.27
2018-05-29T05:48:28.738Z,2.70
2018-05-29T05:50:55.985Z,3.07
2018-05-29T05:53:23.180Z,2.70
2018-05-29T05:55:50.386Z,3.10
2018-05-29T05:58:18.427Z,3.13
2018-05-29T06:00:45.638Z,3.27
2018-05-29T06:03:12.841Z,2.93
2018-05-29T06:05:40.660Z,2.67
2018-05-29T06:08:07.847Z,2.70
2018-05-29T06:10:35.051Z,3.10
2018-05-29T06:13:02.318Z,2.83
2018-05-29T06:15:29.561Z,2.80
2018-05-29T06:17:56.848Z,2.97
2018-05-29T06:20:24.062Z,3.30
2018-05-29T06:22:51.273Z,3.37
2018-05-29T06:25:18.672Z,3.50
2018-05-29T06:27:45.887Z,2.93
2018-05-29T06:30:14.284Z,2.77
2018-05-29T06:32:41.548Z,3.03
2018-05-29T06:35:08.937Z,3.27
2018-05-29T06:37:36.305Z,3.50
2018-05-29T06:40:03.511Z,4.00
2018-05-29T06:42:30.706Z,2.83
2018-05-29T06:44:58.048Z,2.80
2018-05-29T06:47:25.426Z,2.80
2018-05-29T06:49:52.635Z,2.50
2018-05-29T06:52:19.825Z,2.60
2018-05-29T06:54:47.006Z,3.00
2018-05-29T06:57:14.247Z,2.90
2018-05-29T06:59:41.496Z,2.47
2018-05-29T07:02:08.694Z,3.43
2018-05-29T07:04:35.893Z,3.30
2018-05-29T07:07:03.102Z,2.80
2018-05-29T07:09:30.495Z,2.80
2018-05-29T07:11:57.699Z,3.13
2018-05-29T07:14:24.879Z,2.23
2018-05-29T07:16:52.100Z,2.33
2018-05-29T07:19:19.289Z,2.60
2018-05-29T07:21:46.478Z,2.40
2018-05-29T07:24:13.694Z,2.47
2018-05-29T07:26:40.871Z,2.53
2018-05-29T07:29:08.064Z,2.50
2018-05-29T07:31:35.249Z,2.53
2018-05-29T07:34:02.470Z,4.20
2018-05-29T07:36:29.788Z,2.47
2018-05-29T07:38:56.983Z,2.43
2018-05-29T07:41:24.375Z,2.77
2018-05-29T07:43:51.563Z,2.90
2018-05-29T07:46:18.747Z,2.53
2018-05-29T07:48:45.930Z,2.80
2018-05-29T07:51:13.114Z,2.77
2018-05-29T07:53:40.310Z,2.90
2018-05-29T07:56:07.494Z,2.50
2018-05-29T07:58:34.692Z,2.60
2018-05-29T08:01:01.892Z,2.60
2018-05-29T08:03:29.094Z,2.47
2018-05-29T08:05:56.274Z,3.40
2018-05-29T08:08:23.475Z,2.77
2018-05-29T08:10:50.666Z,2.97
2018-05-29T08:13:17.880Z,2.73
2018-05-29T08:15:45.077Z,3.73
2018-05-29T08:18:12.292Z,2.60
2018-05-29T08:20:39.493Z,2.77
2018-05-29T08:23:06.690Z,2.90
2018-05-29T08:25:33.921Z,2.47
2018-05-29T08:28:01.120Z,2.47
2018-05-29T08:30:28.319Z,3.03
2018-05-29T08:32:55.513Z,2.60
2018-05-29T08:35:22.715Z,3.33
2018-05-29T08:37:49.913Z,2.57
2018-05-29T08:40:17.096Z,3.40
2018-05-29T08:42:44.290Z,3.17
2018-05-29T08:45:11.485Z,3.90
2018-05-29T08:47:38.682Z,2.50
2018-05-29T08:50:05.889Z,2.73
2018-05-29T08:52:33.089Z,2.70
2018-05-29T08:55:00.283Z,2.77
2018-05-29T08:57:27.568Z,2.80
2018-05-29T08:59:54.883Z,2.60
2018-05-29T09:02:22.101Z,2.80
2018-05-29T09:04:49.294Z,3.23
2018-05-29T09:07:16.486Z,3.13
2018-05-29T09:09:43.707Z,4.20
2018-05-29T09:12:10.897Z,3.10
2018-05-29T09:14:38.150Z,4.10
2018-05-29T09:17:05.334Z,2.73
2018-05-29T09:19:32.553Z,2.90
2018-05-29T09:21:59.742Z,3.30
2018-05-29T09:24:26.954Z,3.30
2018-05-29T09:26:54.347Z,3.13
2018-05-29T09:29:21.558Z,2.60
2018-05-29T09:31:48.749Z,3.20
2018-05-29T09:34:15.960Z,3.60
2018-05-29T09:36:43.166Z,3.10
2018-05-29T09:39:10.365Z,2.80
2018-05-29T09:41:37.550Z,2.80
2018-05-29T09:44:04.761Z,3.23
2018-05-29T09:46:31.949Z,3.20
2018-05-29T09:48:59.160Z,3.10
2018-05-29T09:51:26.367Z,3.07
2018-05-29T09:53:53.588Z,3.00
2018-05-29T09:56:20.774Z,2.80
2018-05-29T09:58:47.992Z,2.90
2018-05-29T10:01:15.207Z,2.80
2018-05-29T10:03:42.643Z,3.03
2018-05-29T10:06:09.842Z,3.47
2018-05-29T10:08:37.056Z,3.60
2018-05-29T10:11:04.259Z,3.53
2018-05-29T10:13:31.464Z,3.10
2018-05-29T10:15:58.655Z,3.23
2018-05-29T10:18:25.882Z,2.93
2018-05-29T10:20:53.058Z,3.30
2018-05-29T10:23:20.275Z,3.20
2018-05-29T10:25:47.667Z,2.87
2018-05-29T10:28:14.852Z,2.90
2018-05-29T10:30:42.045Z,3.00
2018-05-29T10:33:09.237Z,4.20
2018-05-29T10:35:36.436Z,3.63
2018-05-29T10:38:03.634Z,3.10
2018-05-29T10:40:30.854Z,3.30
2018-05-29T10:42:58.072Z,3.93
2018-05-29T10:45:25.263Z,4.20
2018-05-29T10:47:52.456Z,3.57
2018-05-29T10:50:19.657Z,3.60
2018-05-29T10:52:46.858Z,3.17
2018-05-29T10:55:14.075Z,3.20
2018-05-29T10:57:41.297Z,3.13
2018-05-29T11:00:08.490Z,3.60
2018-05-29T11:02:35.693Z,3.90
2018-05-29T11:05:02.898Z,4.30
2018-05-29T11:07:30.111Z,3.50
2018-05-29T11:09:57.302Z,4.20
2018-05-29T11:12:24.490Z,3.80
2018-05-29T11:14:51.690Z,3.63
2018-05-29T11:17:18.878Z,3.17
2018-05-29T11:19:46.075Z,3.53
2018-05-29T11:22:13.281Z,3.50
2018-05-29T11:24:40.467Z,3.57
2018-05-29T11:27:07.674Z,4.33
2018-05-29T11:29:34.856Z,3.23
2018-05-29T11:32:02.062Z,3.67
2018-05-29T11:34:29.264Z,3.60
2018-05-29T11:36:56.472Z,3.13
2018-05-29T11:39:23.654Z,3.93
2018-05-29T11:41:50.868Z,3.20
2018-05-29T11:44:18.046Z,2.70
2018-05-29T11:46:45.243Z,3.37
2018-05-29T11:49:12.440Z,4.13
2018-05-29T11:51:39.672Z,4.07
2018-05-29T11:54:06.855Z,2.93
2018-05-29T11:56:34.057Z,3.27
2018-05-29T11:59:01.259Z,4.37
2018-05-29T12:01:28.462Z,3.07
2018-05-29T12:03:55.666Z,4.10
2018-05-29T12:06:22.860Z,3.13
2018-05-29T12:08:50.062Z,3.50
2018-05-29T12:11:17.247Z,3.40
2018-05-29T12:13:44.440Z,3.97
2018-05-29T12:16:11.647Z,3.90
2018-05-29T12:18:38.857Z,4.53
2018-05-29T12:21:06.073Z,3.40
2018-05-29T12:23:33.258Z,3.40
2018-05-29T12:26:00.515Z,3.33
2018-05-29T12:28:27.912Z,3.93
2018-05-29T12:30:55.101Z,4.00
2018-05-29T12:33:22.290Z,4.23
2018-05-29T12:35:49.509Z,3.30
2018-05-29T12:38:16.762Z,3.13
2018-05-29T12:40:43.952Z,2.50
2018-05-29T12:43:11.154Z,3.00
2018-05-29T12:45:38.457Z,3.50
2018-05-29T12:48:05.653Z,3.17
2018-05-29T12:50:32.843Z,3.30
2018-05-29T12:53:00.154Z,3.20
2018-05-29T12:55:27.365Z,3.80
2018-05-29T12:57:54.574Z,3.00
2018-05-29T13:00:21.779Z,3.37
2018-05-29T13:02:48.998Z,4.40
2018-05-29T13:05:16.190Z,3.03
2018-05-29T13:07:43.442Z,3.07
2018-05-29T13:10:10.637Z,3.63
2018-05-29T13:12:37.830Z,3.13
2018-05-29T13:15:05.045Z,3.70
2018-05-29T13:17:32.413Z,3.20
2018-05-29T13:19:59.614Z,3.60
2018-05-29T13:22:26.878Z,3.60
2018-05-29T13:24:54.247Z,3.17
2018-05-29T13:27:21.470Z,2.80
2018-05-29T13:29:48.713Z,3.10
2018-05-29T13:32:15.891Z,2.80
2018-05-29T13:34:43.099Z,2.97
2018-05-29T13:37:10.307Z,3.30
2018-05-29T13:39:37.491Z,2.63
2018-05-29T13:42:06.480Z,2.90
2018-05-29T13:44:33.682Z,3.57
2018-05-29T13:47:00.901Z,3.50
2018-05-29T13:49:28.082Z,2.90
2018-05-29T13:51:55.274Z,2.40
2018-05-29T13:54:22.459Z,2.70
2018-05-29T13:56:49.647Z,2.97
2018-05-29T13:59:16.856Z,3.53
2018-05-29T14:01:44.055Z,3.30
2018-05-29T14:04:11.258Z,3.00
2018-05-29T14:06:38.462Z,2.80
2018-05-29T14:09:05.465Z,3.70
2018-05-29T14:11:32.797Z,3.23
2018-05-29T14:13:59.998Z,2.50
2018-05-29T14:16:27.188Z,3.53
2018-05-29T14:18:54.461Z,2.90
2018-05-29T14:21:21.655Z,2.77
2018-05-29T14:23:48.843Z,2.90
2018-05-29T14:26:16.050Z,2.93
2018-05-29T14:28:43.247Z,2.90
2018-05-29T14:31:10.454Z,2.93
2018-05-29T14:33:37.647Z,2.93
2018-05-29T14:36:04.891Z,2.80
2018-05-29T14:38:32.124Z,2.80
2018-05-29T14:40:59.493Z,3.10
2018-05-29T14:43:26.692Z,3.40
2018-05-29T14:45:53.877Z,3.00
2018-05-29T14:48:21.087Z,3.00
2018-05-29T14:50:48.284Z,3.10
2018-05-29T14:53:16.036Z,2.80
2018-05-29T14:55:42.997Z,3.27
2018-05-29T14:58:10.186Z,3.40
2018-05-29T15:00:37.130Z,2.60
2018-05-29T15:03:04.338Z,3.03
2018-05-29T15:05:31.577Z,2.77
2018-05-29T15:07:58.806Z,3.27
2018-05-29T15:10:26.042Z,2.50
2018-05-29T15:12:53.244Z,3.13
2018-05-29T15:15:20.442Z,2.97
2018-05-29T15:17:47.642Z,3.00
2018-05-29T15:20:14.892Z,2.80
2018-05-29T15:22:42.105Z,2.90
2018-05-29T15:25:09.315Z,3.20
2018-05-29T15:27:36.630Z,2.97
2018-05-29T15:30:03.602Z,2.73
2018-05-29T15:32:30.812Z,2.70
2018-05-29T15:34:58.009Z,2.60
2018-05-29T15:37:25.205Z,2.83
2018-05-29T15:39:52.421Z,4.47
2018-05-29T15:42:19.598Z,3.27
2018-05-29T15:44:46.813Z,2.97
2018-05-29T15:47:14.031Z,3.03
2018-05-29T15:49:41.223Z,3.13
2018-05-29T15:52:08.440Z,3.10
2018-05-29T15:54:35.833Z,3.53
2018-05-29T15:57:03.033Z,4.90
2018-05-29T15:59:30.253Z,2.80
2018-05-29T16:01:57.468Z,2.83
2018-05-29T16:04:26.358Z,3.50
2018-05-29T16:06:53.563Z,3.20
2018-05-29T16:09:20.907Z,3.17
2018-05-29T16:11:48.129Z,3.27
2018-05-29T16:14:15.393Z,3.47
2018-05-29T16:16:43.093Z,3.17
2018-05-29T16:19:11.275Z,2.90
2018-05-29T16:21:39.502Z,3.50
2018-05-29T16:24:06.710Z,2.10
2018-05-29T16:26:33.940Z,3.37
2018-05-29T16:29:01.320Z,3.60
2018-05-29T16:31:28.643Z,2.97
2018-05-29T16:33:55.873Z,2.70
2018-05-29T16:36:23.054Z,2.90
2018-05-29T16:38:50.283Z,3.13
2018-05-29T16:41:17.545Z,3.70
2018-05-29T16:43:44.742Z,3.07
2018-05-29T16:46:11.981Z,2.80
2018-05-29T16:48:39.228Z,3.20
2018-05-29T16:51:06.434Z,3.10
2018-05-29T16:53:33.670Z,2.97
2018-05-29T16:56:00.878Z,2.80
2018-05-29T16:58:28.081Z,3.40
2018-05-29T17:00:55.283Z,3.00
2018-05-29T17:03:22.513Z,2.90
2018-05-29T17:05:49.708Z,3.30
2018-05-29T17:08:16.920Z,3.00
2018-05-29T17:10:44.118Z,3.07
2018-05-29T17:13:11.326Z,3.57
2018-05-29T17:15:38.521Z,3.67
2018-05-29T17:18:05.755Z,5.63
2018-05-29T17:20:32.960Z,3.53
2018-05-29T17:23:00.144Z,3.10
2018-05-29T17:25:27.357Z,3.07
2018-05-29T17:27:54.571Z,2.60
2018-05-29T17:30:21.783Z,3.23
2018-05-29T17:32:48.978Z,3.20
2018-05-29T17:35:16.205Z,4.73
2018-05-29T17:37:43.597Z,3.23
2018-05-29T17:40:10.795Z,2.50
2018-05-29T17:42:37.992Z,2.87
2018-05-29T17:45:05.247Z,3.33
2018-05-29T17:47:32.575Z,2.83
2018-05-29T17:49:59.791Z,3.30
2018-05-29T17:52:26.990Z,4.30
2018-05-29T17:54:54.199Z,2.93
2018-05-29T17:57:21.409Z,3.20
2018-05-29T17:59:48.615Z,3.60
2018-05-29T18:02:15.836Z,2.90
2018-05-29T18:04:43.278Z,3.40
2018-05-29T18:07:10.475Z,3.00
2018-05-29T18:09:37.684Z,2.97
2018-05-29T18:12:04.897Z,3.20
2018-05-29T18:14:32.114Z,3.07
2018-05-29T18:16:59.318Z,3.73
2018-05-29T18:19:26.519Z,2.80
2018-05-29T18:21:53.739Z,3.40
2018-05-29T18:24:20.973Z,2.77
2018-05-29T18:26:48.217Z,2.80
2018-05-29T18:29:15.588Z,3.40
2018-05-29T18:31:42.805Z,3.23
2018-05-29T18:34:10.024Z,3.17
2018-05-29T18:36:37.426Z,3.13
2018-05-29T18:39:05.310Z,3.20
2018-05-29T18:41:32.517Z,3.27
2018-05-29T18:43:59.721Z,3.47
2018-05-29T18:46:26.937Z,2.70
2018-05-29T18:48:54.145Z,3.70
2018-05-29T18:51:21.357Z,3.10
2018-05-29T18:53:48.554Z,4.80
2018-05-29T18:56:15.748Z,4.10
2018-05-29T18:58:43.009Z,2.80
2018-05-29T19:01:10.262Z,3.30
2018-05-29T19:03:37.591Z,3.13
2018-05-29T19:06:04.878Z,4.00
2018-05-29T19:08:32.100Z,3.67
2018-05-29T19:10:59.358Z,3.43
2018-05-29T19:13:26.706Z,3.30
2018-05-29T19:15:53.914Z,5.07
2018-05-29T19:18:21.107Z,4.20
2018-05-29T19:20:48.351Z,4.60
2018-05-29T19:23:15.570Z,4.13
2018-05-29T19:25:42.775Z,4.80
2018-05-29T19:28:09.990Z,3.83
2018-05-29T19:30:37.206Z,3.40
2018-05-29T19:33:04.493Z,4.67
2018-05-29T19:35:31.718Z,4.03
2018-05-29T19:37:58.957Z,4.90
2018-05-29T19:40:26.165Z,4.70
2018-05-29T19:42:53.374Z,4.10
2018-05-29T19:45:20.701Z,5.20
2018-05-29T19:47:47.912Z,4.93
2018-05-29T19:50:15.167Z,4.50
2018-05-29T19:52:42.379Z,4.40
2018-05-29T19:55:09.621Z,5.20
2018-05-29T19:57:36.864Z,4.77
2018-05-29T20:00:03.909Z,5.23
2018-05-29T20:02:31.159Z,4.60
2018-05-29T20:04:58.387Z,4.43
2018-05-29T20:07:25.631Z,5.37
2018-05-29T20:09:52.850Z,4.53
2018-05-29T20:12:20.102Z,4.90
2018-05-29T20:14:47.350Z,4.80
2018-05-29T20:17:14.566Z,4.43
2018-05-29T20:19:41.795Z,5.30
2018-05-29T20:22:08.771Z,4.57
2018-05-29T20:24:35.982Z,5.23
2018-05-29T20:27:03.221Z,4.47
2018-05-29T20:29:30.606Z,4.93
2018-05-29T20:31:57.848Z,4.00
2018-05-29T20:34:25.045Z,4.47
2018-05-29T20:36:52.337Z,4.70
2018-05-29T20:39:19.685Z,4.40
2018-05-29T20:41:46.947Z,4.63
2018-05-29T20:44:14.163Z,4.57
2018-05-29T20:46:41.374Z,4.10
2018-05-29T20:49:08.592Z,4.53
2018-05-29T20:51:35.799Z,5.13
2018-05-29T20:54:03.001Z,6.07
2018-05-29T20:56:30.005Z,5.57
2018-05-29T20:58:57.236Z,5.50
2018-05-29T21:01:24.427Z,5.73
2018-05-29T21:03:51.658Z,6.40
2018-05-29T21:06:18.845Z,6.90
2018-05-29T21:08:46.054Z,7.03
2018-05-29T21:11:13.314Z,6.67
2018-05-29T21:13:40.518Z,6.77
2018-05-29T21:16:07.714Z,7.40
2018-05-29T21:18:34.903Z,6.87
2018-05-29T21:21:02.126Z,10.80
2018-05-29T21:23:29.329Z,8.70
2018-05-29T21:25:56.536Z,6.80
2018-05-29T21:28:23.761Z,7.80
2018-05-29T21:30:51.144Z,8.50
2018-05-29T21:33:18.367Z,9.53
2018-05-29T21:35:45.557Z,8.50
2018-05-29T21:38:12.783Z,6.77
2018-05-29T21:40:39.980Z,7.97
2018-05-29T21:43:06.943Z,6.87
2018-05-29T21:45:34.138Z,8.90
2018-05-29T21:48:01.362Z,6.73
2018-05-29T21:50:28.599Z,6.13
2018-05-29T21:52:55.856Z,6.70
2018-05-29T21:55:23.046Z,6.33
2018-05-29T21:57:50.273Z,7.30
2018-05-29T22:00:17.454Z,7.00
2018-05-29T22:02:44.703Z,7.40
2018-05-29T22:05:11.894Z,7.23
2018-05-29T22:07:39.095Z,6.70
2018-05-29T22:10:06.297Z,5.30
2018-05-29T22:12:33.473Z,6.80
2018-05-29T22:15:00.670Z,6.53
2018-05-29T22:17:27.877Z,7.00
2018-05-29T22:19:55.090Z,15.03
2018-05-29T22:22:22.038Z,8.93
2018-05-29T22:24:49.231Z,7.47
2018-05-29T22:27:16.421Z,6.80
2018-05-29T22:29:43.622Z,7.00
2018-05-29T22:32:10.813Z,6.40
2018-05-29T22:34:38.098Z,7.73
2018-05-29T22:37:05.289Z,7.60
2018-05-29T22:39:32.496Z,7.03
2018-05-29T22:41:59.933Z,6.33
2018-05-29T22:44:27.127Z,7.30
2018-05-29T22:46:54.322Z,7.63
2018-05-29T22:49:21.535Z,7.50
2018-05-29T22:51:48.730Z,7.23
2018-05-29T22:54:15.945Z,10.80
2018-05-29T22:56:42.904Z,7.20
2018-05-29T22:59:10.166Z,8.20
2018-05-29T23:01:37.350Z,7.03
2018-05-29T23:04:04.302Z,7.20
2018-05-29T23:06:31.506Z,7.83
2018-05-29T23:08:58.702Z,7.77
2018-05-29T23:11:25.929Z,8.20
2018-05-29T23:13:53.112Z,7.87
2018-05-29T23:16:20.296Z,8.37
2018-05-29T23:18:47.494Z,6.20
2018-05-29T23:21:14.681Z,7.50
2018-05-29T23:23:41.915Z,5.30
2018-05-29T23:26:09.103Z,2.93
2018-05-29T23:28:36.330Z,3.13
2018-05-29T23:31:03.521Z,2.80
2018-05-29T23:33:30.742Z,3.23
2018-05-29T23:35:57.934Z,2.83
2018-05-29T23:38:25.135Z,2.40
2018-05-29T23:40:52.348Z,3.50
2018-05-29T23:43:19.541Z,2.50
2018-05-29T23:45:46.742Z,2.80
2018-05-29T23:48:13.922Z,2.43
2018-05-29T23:50:41.117Z,3.70
2018-05-29T23:53:08.417Z,2.43
2018-05-29T23:55:35.611Z,2.23
2018-05-29T23:58:02.825Z,2.33
